sensor_id;sensor_type;location;lat;lon;timestamp;temperature;humidity
6439;DHT22;3252;52.540;13.290;2023-06-24T00:00:37;17.20;99.90
6439;DHT22;3252;52.540;13.290;2023-06-24T00:02:39;17.20;99.90
6439;DHT22;3252;52.540;13.290;2023-06-24T00:04:44;17.10;99.90
6439;DHT22;3252;52.540;13.290;2023-06-24T00:06:46;17.10;99.90
6439;DHT22;3252;52.540;13.290;2023-06-24T00:08:55;17.10;99.90
6439;DHT22;3252;52.540;13.290;2023-06-24T00:11:01;17.10;99.90
6439;DHT22;3252;52.540;13.290;2023-06-24T00:13:04;17.10;99.90
6439;DHT22;3252;52.540;13.290;2023-06-24T00:15:08;17.10;99.90
6439;DHT22;3252;52.540;13.290;2023-06-24T00:17:11;17.10;99.90
6439;DHT22;3252;52.540;13.290;2023-06-24T00:19:14;17.10;99.90
6439;DHT22;3252;52.540;13.290;2023-06-24T00:21:18;17.00;99.90
6439;DHT22;3252;52.540;13.290;2023-06-24T00:23:22;17.00;99.90
6439;DHT22;3252;52.540;13.290;2023-06-24T00:25:25;17.00;99.90
6439;DHT22;3252;52.540;13.290;2023-06-24T00:27:28;17.00;99.90
6439;DHT22;3252;52.540;13.290;2023-06-24T00:29:30;17.00;99.90
6439;DHT22;3252;52.540;13.290;2023-06-24T00:31:33;17.00;99.90
6439;DHT22;3252;52.540;13.290;2023-06-24T00:33:36;17.00;99.90
6439;DHT22;3252;52.540;13.290;2023-06-24T00:35:38;17.00;99.90
6439;DHT22;3252;52.540;13.290;2023-06-24T00:37:42;17.00;99.90
6439;DHT22;3252;52.540;13.290;2023-06-24T00:39:47;17.10;99.90
6439;DHT22;3252;52.540;13.290;2023-06-24T00:41:50;17.10;99.90
6439;DHT22;3252;52.540;13.290;2023-06-24T00:43:52;17.10;99.90
6439;DHT22;3252;52.540;13.290;2023-06-24T00:45:54;17.10;99.90
6439;DHT22;3252;52.540;13.290;2023-06-24T00:47:58;17.10;99.90
6439;DHT22;3252;52.540;13.290;2023-06-24T00:50:01;17.10;99.90
6439;DHT22;3252;52.540;13.290;2023-06-24T00:52:04;17.20;99.90
6439;DHT22;3252;52.540;13.290;2023-06-24T00:54:07;17.20;99.90
6439;DHT22;3252;52.540;13.290;2023-06-24T00:56:10;17.20;99.90
6439;DHT22;3252;52.540;13.290;2023-06-24T00:58:14;17.20;99.90
6439;DHT22;3252;52.540;13.290;2023-06-24T01:00:18;17.20;99.90
6439;DHT22;3252;52.540;13.290;2023-06-24T01:02:21;17.20;99.90
6439;DHT22;3252;52.540;13.290;2023-06-24T01:04:32;17.20;99.90
6439;DHT22;3252;52.540;13.290;2023-06-24T01:06:36;17.20;99.90
6439;DHT22;3252;52.540;13.290;2023-06-24T01:08:44;17.20;99.90
6439;DHT22;3252;52.540;13.290;2023-06-24T01:10:57;17.20;99.90
6439;DHT22;3252;52.540;13.290;2023-06-24T01:12:59;17.20;99.90
6439;DHT22;3252;52.540;13.290;2023-06-24T01:15:03;17.20;99.90
6439;DHT22;3252;52.540;13.290;2023-06-24T01:17:16;17.20;99.90
6439;DHT22;3252;52.540;13.290;2023-06-24T01:19:44;17.20;99.90
6439;DHT22;3252;52.540;13.290;2023-06-24T01:21:57;17.20;99.90
6439;DHT22;3252;52.540;13.290;2023-06-24T01:24:17;17.20;99.90
6439;DHT22;3252;52.540;13.290;2023-06-24T01:26:47;17.20;99.90
6439;DHT22;3252;52.540;13.290;2023-06-24T01:29:11;17.20;99.90
6439;DHT22;3252;52.540;13.290;2023-06-24T01:31:36;17.10;99.90
6439;DHT22;3252;52.540;13.290;2023-06-24T01:33:45;17.10;99.90
6439;DHT22;3252;52.540;13.290;2023-06-24T01:35:51;17.10;99.90
6439;DHT22;3252;52.540;13.290;2023-06-24T01:37:55;17.00;99.90
6439;DHT22;3252;52.540;13.290;2023-06-24T01:40:04;17.00;99.90
6439;DHT22;3252;52.540;13.290;2023-06-24T01:42:13;17.00;99.90
6439;DHT22;3252;52.540;13.290;2023-06-24T01:44:25;17.00;99.90
6439;DHT22;3252;52.540;13.290;2023-06-24T01:46:30;17.00;99.90
6439;DHT22;3252;52.540;13.290;2023-06-24T01:48:35;17.00;99.90
6439;DHT22;3252;52.540;13.290;2023-06-24T01:50:42;16.90;99.90
6439;DHT22;3252;52.540;13.290;2023-06-24T01:52:45;16.90;99.90
6439;DHT22;3252;52.540;13.290;2023-06-24T01:54:50;16.90;99.90
6439;DHT22;3252;52.540;13.290;2023-06-24T01:56:56;16.90;99.90
6439;DHT22;3252;52.540;13.290;2023-06-24T01:59:02;16.90;99.90
6439;DHT22;3252;52.540;13.290;2023-06-24T02:01:07;16.90;99.90
6439;DHT22;3252;52.540;13.290;2023-06-24T02:03:11;16.90;99.90
6439;DHT22;3252;52.540;13.290;2023-06-24T02:05:16;16.80;99.90
6439;DHT22;3252;52.540;13.290;2023-06-24T02:07:20;16.80;99.90
6439;DHT22;3252;52.540;13.290;2023-06-24T02:09:23;16.80;99.90
6439;DHT22;3252;52.540;13.290;2023-06-24T02:11:28;16.80;99.90
6439;DHT22;3252;52.540;13.290;2023-06-24T02:13:32;16.80;99.90
6439;DHT22;3252;52.540;13.290;2023-06-24T02:15:38;16.80;99.90
6439;DHT22;3252;52.540;13.290;2023-06-24T02:17:41;16.80;99.90
6439;DHT22;3252;52.540;13.290;2023-06-24T02:19:44;16.70;99.90
6439;DHT22;3252;52.540;13.290;2023-06-24T02:21:53;16.70;99.90
6439;DHT22;3252;52.540;13.290;2023-06-24T02:23:57;16.70;99.90
6439;DHT22;3252;52.540;13.290;2023-06-24T02:26:00;16.70;99.90
6439;DHT22;3252;52.540;13.290;2023-06-24T02:28:05;16.70;99.90
6439;DHT22;3252;52.540;13.290;2023-06-24T02:30:10;16.60;99.90
6439;DHT22;3252;52.540;13.290;2023-06-24T02:32:12;16.60;99.90
6439;DHT22;3252;52.540;13.290;2023-06-24T02:34:14;16.60;99.90
6439;DHT22;3252;52.540;13.290;2023-06-24T02:36:16;16.60;99.90
6439;DHT22;3252;52.540;13.290;2023-06-24T02:38:20;16.60;99.90
6439;DHT22;3252;52.540;13.290;2023-06-24T02:40:22;16.50;99.90
6439;DHT22;3252;52.540;13.290;2023-06-24T02:42:25;16.50;99.90
6439;DHT22;3252;52.540;13.290;2023-06-24T02:44:28;16.50;99.90
6439;DHT22;3252;52.540;13.290;2023-06-24T02:46:32;16.40;99.90
6439;DHT22;3252;52.540;13.290;2023-06-24T02:49:25;16.40;99.90
6439;DHT22;3252;52.540;13.290;2023-06-24T02:51:30;16.40;99.90
6439;DHT22;3252;52.540;13.290;2023-06-24T02:53:34;16.40;99.90
6439;DHT22;3252;52.540;13.290;2023-06-24T02:55:39;16.30;99.90
6439;DHT22;3252;52.540;13.290;2023-06-24T02:57:42;16.30;99.90
6439;DHT22;3252;52.540;13.290;2023-06-24T02:59:48;16.30;99.90
6439;DHT22;3252;52.540;13.290;2023-06-24T03:01:51;16.30;99.90
6439;DHT22;3252;52.540;13.290;2023-06-24T03:03:54;16.30;99.90
6439;DHT22;3252;52.540;13.290;2023-06-24T03:05:57;16.20;99.90
6439;DHT22;3252;52.540;13.290;2023-06-24T03:08:01;16.20;99.90
6439;DHT22;3252;52.540;13.290;2023-06-24T03:10:10;16.20;99.90
6439;DHT22;3252;52.540;13.290;2023-06-24T03:12:12;16.20;99.90
6439;DHT22;3252;52.540;13.290;2023-06-24T03:14:17;16.20;99.90
6439;DHT22;3252;52.540;13.290;2023-06-24T03:16:21;16.20;99.90
6439;DHT22;3252;52.540;13.290;2023-06-24T03:18:31;16.10;99.90
6439;DHT22;3252;52.540;13.290;2023-06-24T03:20:33;16.10;99.90
6439;DHT22;3252;52.540;13.290;2023-06-24T03:22:42;16.10;99.90
6439;DHT22;3252;52.540;13.290;2023-06-24T03:24:47;16.00;99.90
6439;DHT22;3252;52.540;13.290;2023-06-24T03:26:51;16.00;99.90
6439;DHT22;3252;52.540;13.290;2023-06-24T03:29:00;16.00;99.90
6439;DHT22;3252;52.540;13.290;2023-06-24T03:31:03;16.00;99.90
6439;DHT22;3252;52.540;13.290;2023-06-24T03:33:05;16.00;99.90
6439;DHT22;3252;52.540;13.290;2023-06-24T03:35:08;16.00;99.90
6439;DHT22;3252;52.540;13.290;2023-06-24T03:37:10;16.00;99.90
6439;DHT22;3252;52.540;13.290;2023-06-24T03:39:16;16.00;99.90
6439;DHT22;3252;52.540;13.290;2023-06-24T03:41:20;16.00;99.90
6439;DHT22;3252;52.540;13.290;2023-06-24T03:43:24;16.00;99.90
6439;DHT22;3252;52.540;13.290;2023-06-24T03:45:27;15.90;99.90
6439;DHT22;3252;52.540;13.290;2023-06-24T03:47:29;15.90;99.90
6439;DHT22;3252;52.540;13.290;2023-06-24T03:49:32;15.90;99.90
6439;DHT22;3252;52.540;13.290;2023-06-24T03:51:35;15.90;99.90
6439;DHT22;3252;52.540;13.290;2023-06-24T03:53:37;15.90;99.90
6439;DHT22;3252;52.540;13.290;2023-06-24T03:55:40;15.90;99.90
6439;DHT22;3252;52.540;13.290;2023-06-24T03:57:42;15.90;99.90
6439;DHT22;3252;52.540;13.290;2023-06-24T03:59:46;15.90;99.90
6439;DHT22;3252;52.540;13.290;2023-06-24T04:01:48;15.90;99.90
6439;DHT22;3252;52.540;13.290;2023-06-24T04:03:52;15.90;99.90
6439;DHT22;3252;52.540;13.290;2023-06-24T04:05:55;15.90;99.90
6439;DHT22;3252;52.540;13.290;2023-06-24T04:07:58;15.80;99.90
6439;DHT22;3252;52.540;13.290;2023-06-24T04:10:00;15.80;99.90
6439;DHT22;3252;52.540;13.290;2023-06-24T04:12:03;15.80;99.90
6439;DHT22;3252;52.540;13.290;2023-06-24T04:14:10;15.80;99.90
6439;DHT22;3252;52.540;13.290;2023-06-24T04:16:14;15.90;99.90
6439;DHT22;3252;52.540;13.290;2023-06-24T04:18:17;15.90;99.90
6439;DHT22;3252;52.540;13.290;2023-06-24T04:20:20;15.90;99.90
6439;DHT22;3252;52.540;13.290;2023-06-24T04:22:22;15.90;99.90
6439;DHT22;3252;52.540;13.290;2023-06-24T04:24:25;15.90;99.90
6439;DHT22;3252;52.540;13.290;2023-06-24T04:26:27;15.90;99.90
6439;DHT22;3252;52.540;13.290;2023-06-24T04:28:29;15.90;99.90
6439;DHT22;3252;52.540;13.290;2023-06-24T04:30:32;16.00;99.90
6439;DHT22;3252;52.540;13.290;2023-06-24T04:32:39;16.00;99.90
6439;DHT22;3252;52.540;13.290;2023-06-24T04:34:42;16.00;99.90
6439;DHT22;3252;52.540;13.290;2023-06-24T04:36:44;16.10;99.90
6439;DHT22;3252;52.540;13.290;2023-06-24T04:38:47;16.10;99.90
6439;DHT22;3252;52.540;13.290;2023-06-24T04:40:51;16.10;99.90
6439;DHT22;3252;52.540;13.290;2023-06-24T04:42:53;16.10;99.90
6439;DHT22;3252;52.540;13.290;2023-06-24T04:44:57;16.10;99.90
6439;DHT22;3252;52.540;13.290;2023-06-24T04:46:59;16.10;99.90
6439;DHT22;3252;52.540;13.290;2023-06-24T04:49:03;16.00;99.90
6439;DHT22;3252;52.540;13.290;2023-06-24T04:51:06;16.10;99.90
6439;DHT22;3252;52.540;13.290;2023-06-24T04:53:11;16.10;99.90
6439;DHT22;3252;52.540;13.290;2023-06-24T04:55:14;16.10;99.90
6439;DHT22;3252;52.540;13.290;2023-06-24T04:57:24;16.20;99.90
6439;DHT22;3252;52.540;13.290;2023-06-24T04:59:26;16.20;99.90
6439;DHT22;3252;52.540;13.290;2023-06-24T05:01:29;16.20;99.90
6439;DHT22;3252;52.540;13.290;2023-06-24T05:03:31;16.20;99.90
6439;DHT22;3252;52.540;13.290;2023-06-24T05:05:35;16.20;99.90
6439;DHT22;3252;52.540;13.290;2023-06-24T05:07:37;16.20;99.90
6439;DHT22;3252;52.540;13.290;2023-06-24T05:09:41;16.20;99.90
6439;DHT22;3252;52.540;13.290;2023-06-24T05:11:44;16.20;99.90
6439;DHT22;3252;52.540;13.290;2023-06-24T05:13:47;16.20;99.90
6439;DHT22;3252;52.540;13.290;2023-06-24T05:15:52;16.30;99.90
6439;DHT22;3252;52.540;13.290;2023-06-24T05:17:55;16.30;99.90
6439;DHT22;3252;52.540;13.290;2023-06-24T05:19:57;16.40;99.90
6439;DHT22;3252;52.540;13.290;2023-06-24T05:22:02;16.40;99.90
6439;DHT22;3252;52.540;13.290;2023-06-24T05:24:05;16.50;99.90
6439;DHT22;3252;52.540;13.290;2023-06-24T05:26:07;16.50;99.90
6439;DHT22;3252;52.540;13.290;2023-06-24T05:28:10;16.50;99.90
6439;DHT22;3252;52.540;13.290;2023-06-24T05:30:12;16.60;99.90
6439;DHT22;3252;52.540;13.290;2023-06-24T05:32:15;16.60;99.90
6439;DHT22;3252;52.540;13.290;2023-06-24T05:34:18;16.60;99.90
6439;DHT22;3252;52.540;13.290;2023-06-24T05:36:20;16.60;99.90
6439;DHT22;3252;52.540;13.290;2023-06-24T05:38:24;16.60;99.90
6439;DHT22;3252;52.540;13.290;2023-06-24T05:40:27;16.60;99.90
6439;DHT22;3252;52.540;13.290;2023-06-24T05:42:33;16.70;99.90
6439;DHT22;3252;52.540;13.290;2023-06-24T05:44:38;16.70;99.90
6439;DHT22;3252;52.540;13.290;2023-06-24T05:46:41;16.80;99.90
6439;DHT22;3252;52.540;13.290;2023-06-24T05:48:43;16.80;99.90
6439;DHT22;3252;52.540;13.290;2023-06-24T05:50:45;16.90;99.90
6439;DHT22;3252;52.540;13.290;2023-06-24T05:52:48;16.90;99.90
6439;DHT22;3252;52.540;13.290;2023-06-24T05:54:51;16.90;99.90
6439;DHT22;3252;52.540;13.290;2023-06-24T05:56:54;16.90;99.90
6439;DHT22;3252;52.540;13.290;2023-06-24T05:58:56;17.00;99.90
6439;DHT22;3252;52.540;13.290;2023-06-24T06:00:58;17.10;99.90
6439;DHT22;3252;52.540;13.290;2023-06-24T06:03:02;17.30;99.90
6439;DHT22;3252;52.540;13.290;2023-06-24T06:05:04;17.40;99.90
6439;DHT22;3252;52.540;13.290;2023-06-24T06:07:08;17.50;99.90
6439;DHT22;3252;52.540;13.290;2023-06-24T06:09:10;17.60;99.90
6439;DHT22;3252;52.540;13.290;2023-06-24T06:11:14;17.60;99.90
6439;DHT22;3252;52.540;13.290;2023-06-24T06:13:16;17.60;99.90
6439;DHT22;3252;52.540;13.290;2023-06-24T06:15:19;17.60;99.90
6439;DHT22;3252;52.540;13.290;2023-06-24T06:17:21;17.70;99.90
6439;DHT22;3252;52.540;13.290;2023-06-24T06:19:23;17.80;99.90
6439;DHT22;3252;52.540;13.290;2023-06-24T06:21:26;17.70;99.90
6439;DHT22;3252;52.540;13.290;2023-06-24T06:23:28;17.80;99.90
6439;DHT22;3252;52.540;13.290;2023-06-24T06:25:31;17.80;99.90
6439;DHT22;3252;52.540;13.290;2023-06-24T06:27:35;17.80;99.90
6439;DHT22;3252;52.540;13.290;2023-06-24T06:29:41;17.90;99.90
6439;DHT22;3252;52.540;13.290;2023-06-24T06:31:43;17.90;99.90
6439;DHT22;3252;52.540;13.290;2023-06-24T06:33:46;18.00;99.90
6439;DHT22;3252;52.540;13.290;2023-06-24T06:35:48;18.00;99.90
6439;DHT22;3252;52.540;13.290;2023-06-24T06:37:51;18.10;99.90
6439;DHT22;3252;52.540;13.290;2023-06-24T06:39:55;18.10;99.90
6439;DHT22;3252;52.540;13.290;2023-06-24T06:42:01;18.10;99.90
6439;DHT22;3252;52.540;13.290;2023-06-24T06:44:06;18.20;99.90
6439;DHT22;3252;52.540;13.290;2023-06-24T06:46:08;18.20;99.90
6439;DHT22;3252;52.540;13.290;2023-06-24T06:48:12;18.20;99.90
6439;DHT22;3252;52.540;13.290;2023-06-24T06:50:14;18.30;99.90
6439;DHT22;3252;52.540;13.290;2023-06-24T06:52:17;18.30;99.90
6439;DHT22;3252;52.540;13.290;2023-06-24T06:54:20;18.40;99.90
6439;DHT22;3252;52.540;13.290;2023-06-24T06:56:25;18.40;99.90
6439;DHT22;3252;52.540;13.290;2023-06-24T06:58:28;18.50;99.90
6439;DHT22;3252;52.540;13.290;2023-06-24T07:00:32;18.50;99.90
6439;DHT22;3252;52.540;13.290;2023-06-24T07:02:34;18.50;99.90
6439;DHT22;3252;52.540;13.290;2023-06-24T07:04:37;18.60;99.90
6439;DHT22;3252;52.540;13.290;2023-06-24T07:06:39;18.60;99.90
6439;DHT22;3252;52.540;13.290;2023-06-24T07:08:43;18.70;99.90
6439;DHT22;3252;52.540;13.290;2023-06-24T07:10:45;18.70;99.90
6439;DHT22;3252;52.540;13.290;2023-06-24T07:12:47;18.70;99.90
6439;DHT22;3252;52.540;13.290;2023-06-24T07:14:50;18.80;99.90
6439;DHT22;3252;52.540;13.290;2023-06-24T07:16:54;18.90;99.90
6439;DHT22;3252;52.540;13.290;2023-06-24T07:18:56;19.00;99.90
6439;DHT22;3252;52.540;13.290;2023-06-24T07:21:00;19.00;99.90
6439;DHT22;3252;52.540;13.290;2023-06-24T07:23:02;19.10;99.90
6439;DHT22;3252;52.540;13.290;2023-06-24T07:25:05;19.10;99.90
6439;DHT22;3252;52.540;13.290;2023-06-24T07:27:08;19.20;99.90
6439;DHT22;3252;52.540;13.290;2023-06-24T07:29:10;19.20;99.90
6439;DHT22;3252;52.540;13.290;2023-06-24T07:31:12;19.30;99.90
6439;DHT22;3252;52.540;13.290;2023-06-24T07:33:16;19.20;99.90
6439;DHT22;3252;52.540;13.290;2023-06-24T07:35:18;19.20;99.90
6439;DHT22;3252;52.540;13.290;2023-06-24T07:37:20;19.30;99.90
6439;DHT22;3252;52.540;13.290;2023-06-24T07:39:22;19.40;99.90
6439;DHT22;3252;52.540;13.290;2023-06-24T07:41:25;19.40;99.90
6439;DHT22;3252;52.540;13.290;2023-06-24T07:43:27;19.50;99.90
6439;DHT22;3252;52.540;13.290;2023-06-24T07:45:29;19.40;99.90
6439;DHT22;3252;52.540;13.290;2023-06-24T07:47:31;19.50;99.90
6439;DHT22;3252;52.540;13.290;2023-06-24T07:49:35;19.60;99.90
6439;DHT22;3252;52.540;13.290;2023-06-24T07:51:37;19.70;99.90
6439;DHT22;3252;52.540;13.290;2023-06-24T07:53:39;19.70;99.90
6439;DHT22;3252;52.540;13.290;2023-06-24T07:55:41;19.80;99.90
6439;DHT22;3252;52.540;13.290;2023-06-24T07:57:45;19.80;99.90
6439;DHT22;3252;52.540;13.290;2023-06-24T07:59:47;19.90;99.90
6439;DHT22;3252;52.540;13.290;2023-06-24T08:01:50;19.90;99.90
6439;DHT22;3252;52.540;13.290;2023-06-24T08:03:52;20.00;99.90
6439;DHT22;3252;52.540;13.290;2023-06-24T08:05:55;20.00;99.90
6439;DHT22;3252;52.540;13.290;2023-06-24T08:07:58;20.10;99.90
6439;DHT22;3252;52.540;13.290;2023-06-24T08:10:00;20.20;99.90
6439;DHT22;3252;52.540;13.290;2023-06-24T08:12:03;20.20;99.90
6439;DHT22;3252;52.540;13.290;2023-06-24T08:14:05;20.20;99.90
6439;DHT22;3252;52.540;13.290;2023-06-24T08:16:07;20.20;99.90
6439;DHT22;3252;52.540;13.290;2023-06-24T08:18:10;20.20;99.90
6439;DHT22;3252;52.540;13.290;2023-06-24T08:20:12;20.20;99.90
6439;DHT22;3252;52.540;13.290;2023-06-24T08:22:15;20.20;99.90
6439;DHT22;3252;52.540;13.290;2023-06-24T08:24:18;20.20;99.90
6439;DHT22;3252;52.540;13.290;2023-06-24T08:29:17;20.20;99.90
6439;DHT22;3252;52.540;13.290;2023-06-24T08:31:55;20.20;99.90
6439;DHT22;3252;52.540;13.290;2023-06-24T08:33:59;20.20;99.90
6439;DHT22;3252;52.540;13.290;2023-06-24T08:36:03;20.20;99.90
6439;DHT22;3252;52.540;13.290;2023-06-24T08:38:07;20.10;99.90
6439;DHT22;3252;52.540;13.290;2023-06-24T08:40:10;20.10;99.90
6439;DHT22;3252;52.540;13.290;2023-06-24T08:42:12;20.10;99.90
6439;DHT22;3252;52.540;13.290;2023-06-24T08:44:14;20.20;99.90
6439;DHT22;3252;52.540;13.290;2023-06-24T08:46:18;20.30;99.90
6439;DHT22;3252;52.540;13.290;2023-06-24T08:48:40;20.50;99.90
6439;DHT22;3252;52.540;13.290;2023-06-24T08:50:48;20.40;99.90
6439;DHT22;3252;52.540;13.290;2023-06-24T08:52:53;20.50;99.90
6439;DHT22;3252;52.540;13.290;2023-06-24T08:54:59;20.40;99.90
6439;DHT22;3252;52.540;13.290;2023-06-24T08:57:05;20.50;99.90
6439;DHT22;3252;52.540;13.290;2023-06-24T08:59:09;20.40;99.90
6439;DHT22;3252;52.540;13.290;2023-06-24T09:01:11;20.40;99.90
6439;DHT22;3252;52.540;13.290;2023-06-24T09:03:14;20.50;99.90
6439;DHT22;3252;52.540;13.290;2023-06-24T09:05:16;20.50;99.90
6439;DHT22;3252;52.540;13.290;2023-06-24T09:07:28;20.70;99.90
6439;DHT22;3252;52.540;13.290;2023-06-24T09:09:30;20.70;99.90
6439;DHT22;3252;52.540;13.290;2023-06-24T09:11:34;20.80;99.90
6439;DHT22;3252;52.540;13.290;2023-06-24T09:13:36;20.70;99.90
6439;DHT22;3252;52.540;13.290;2023-06-24T09:15:39;20.80;99.90
6439;DHT22;3252;52.540;13.290;2023-06-24T09:17:44;21.10;99.90
6439;DHT22;3252;52.540;13.290;2023-06-24T09:19:47;21.50;99.90
6439;DHT22;3252;52.540;13.290;2023-06-24T09:21:49;21.70;99.90
6439;DHT22;3252;52.540;13.290;2023-06-24T09:23:54;21.80;99.90
6439;DHT22;3252;52.540;13.290;2023-06-24T09:25:57;21.60;99.90
6439;DHT22;3252;52.540;13.290;2023-06-24T09:28:02;21.60;99.90
6439;DHT22;3252;52.540;13.290;2023-06-24T09:30:17;21.70;98.60
6439;DHT22;3252;52.540;13.290;2023-06-24T09:32:21;21.60;99.20
6439;DHT22;3252;52.540;13.290;2023-06-24T09:34:23;21.60;99.30
6439;DHT22;3252;52.540;13.290;2023-06-24T09:36:25;21.70;99.90
6439;DHT22;3252;52.540;13.290;2023-06-24T09:38:34;21.70;98.70
6439;DHT22;3252;52.540;13.290;2023-06-24T09:40:39;21.80;99.90
6439;DHT22;3252;52.540;13.290;2023-06-24T09:42:48;21.80;99.90
6439;DHT22;3252;52.540;13.290;2023-06-24T09:44:55;21.90;99.60
6439;DHT22;3252;52.540;13.290;2023-06-24T09:46:58;21.90;99.90
6439;DHT22;3252;52.540;13.290;2023-06-24T09:49:00;21.90;99.90
6439;DHT22;3252;52.540;13.290;2023-06-24T09:51:04;21.90;99.90
6439;DHT22;3252;52.540;13.290;2023-06-24T09:53:09;21.80;99.10
6439;DHT22;3252;52.540;13.290;2023-06-24T09:55:18;21.80;98.70
6439;DHT22;3252;52.540;13.290;2023-06-24T09:57:29;21.80;99.60
6439;DHT22;3252;52.540;13.290;2023-06-24T09:59:32;21.80;99.90
6439;DHT22;3252;52.540;13.290;2023-06-24T10:01:38;21.80;99.20
6439;DHT22;3252;52.540;13.290;2023-06-24T10:03:41;21.90;99.90
6439;DHT22;3252;52.540;13.290;2023-06-24T10:05:44;22.00;99.20
6439;DHT22;3252;52.540;13.290;2023-06-24T10:07:47;21.90;98.30
6439;DHT22;3252;52.540;13.290;2023-06-24T10:09:49;22.00;97.80
6439;DHT22;3252;52.540;13.290;2023-06-24T10:11:51;22.10;99.30
6439;DHT22;3252;52.540;13.290;2023-06-24T10:13:54;22.10;99.70
6439;DHT22;3252;52.540;13.290;2023-06-24T10:15:57;22.20;98.90
6439;DHT22;3252;52.540;13.290;2023-06-24T10:18:03;22.20;99.40
6439;DHT22;3252;52.540;13.290;2023-06-24T10:20:06;22.30;98.00
6439;DHT22;3252;52.540;13.290;2023-06-24T10:22:10;22.30;98.20
6439;DHT22;3252;52.540;13.290;2023-06-24T10:24:12;22.30;98.40
6439;DHT22;3252;52.540;13.290;2023-06-24T10:26:25;22.50;99.10
6439;DHT22;3252;52.540;13.290;2023-06-24T10:31:10;22.50;98.90
6439;DHT22;3252;52.540;13.290;2023-06-24T10:33:13;22.60;98.00
6439;DHT22;3252;52.540;13.290;2023-06-24T10:35:24;22.60;99.30
6439;DHT22;3252;52.540;13.290;2023-06-24T10:37:32;22.80;99.30
6439;DHT22;3252;52.540;13.290;2023-06-24T10:39:35;22.90;99.30
6439;DHT22;3252;52.540;13.290;2023-06-24T10:41:38;22.90;97.60
6439;DHT22;3252;52.540;13.290;2023-06-24T10:43:40;22.90;97.00
6439;DHT22;3252;52.540;13.290;2023-06-24T10:45:49;22.90;97.60
6439;DHT22;3252;52.540;13.290;2023-06-24T10:47:52;23.00;97.10
6439;DHT22;3252;52.540;13.290;2023-06-24T10:49:58;23.00;97.70
6439;DHT22;3252;52.540;13.290;2023-06-24T10:52:00;23.10;97.60
6439;DHT22;3252;52.540;13.290;2023-06-24T10:54:03;23.20;97.90
6439;DHT22;3252;52.540;13.290;2023-06-24T10:56:05;23.20;97.90
6439;DHT22;3252;52.540;13.290;2023-06-24T10:58:08;23.10;96.50
6439;DHT22;3252;52.540;13.290;2023-06-24T11:00:12;23.10;97.00
6439;DHT22;3252;52.540;13.290;2023-06-24T11:02:16;23.20;96.30
6439;DHT22;3252;52.540;13.290;2023-06-24T11:04:18;23.10;97.10
6439;DHT22;3252;52.540;13.290;2023-06-24T11:06:22;23.20;97.30
6439;DHT22;3252;52.540;13.290;2023-06-24T11:08:24;23.20;97.00
6439;DHT22;3252;52.540;13.290;2023-06-24T11:10:26;23.30;96.70
6439;DHT22;3252;52.540;13.290;2023-06-24T11:12:31;23.20;95.70
6439;DHT22;3252;52.540;13.290;2023-06-24T11:14:33;23.30;95.30
6439;DHT22;3252;52.540;13.290;2023-06-24T11:16:36;23.30;93.10
6439;DHT22;3252;52.540;13.290;2023-06-24T11:18:40;23.30;92.30
6439;DHT22;3252;52.540;13.290;2023-06-24T11:20:42;23.20;94.60
6439;DHT22;3252;52.540;13.290;2023-06-24T11:22:46;23.10;94.80
6439;DHT22;3252;52.540;13.290;2023-06-24T11:24:48;23.10;93.90
6439;DHT22;3252;52.540;13.290;2023-06-24T11:26:51;23.20;94.90
6439;DHT22;3252;52.540;13.290;2023-06-24T11:28:53;23.20;93.40
6439;DHT22;3252;52.540;13.290;2023-06-24T11:30:55;23.20;97.30
6439;DHT22;3252;52.540;13.290;2023-06-24T11:32:58;23.20;97.40
6439;DHT22;3252;52.540;13.290;2023-06-24T11:35:00;23.30;96.90
6439;DHT22;3252;52.540;13.290;2023-06-24T11:37:10;23.40;96.10
6439;DHT22;3252;52.540;13.290;2023-06-24T11:39:24;23.40;94.90
6439;DHT22;3252;52.540;13.290;2023-06-24T11:41:26;23.40;93.70
6439;DHT22;3252;52.540;13.290;2023-06-24T11:43:29;23.40;93.90
6439;DHT22;3252;52.540;13.290;2023-06-24T11:45:31;23.40;95.20
6439;DHT22;3252;52.540;13.290;2023-06-24T11:47:35;23.50;95.80
6439;DHT22;3252;52.540;13.290;2023-06-24T11:49:50;23.50;93.90
6439;DHT22;3252;52.540;13.290;2023-06-24T11:51:53;23.60;93.10
6439;DHT22;3252;52.540;13.290;2023-06-24T11:53:59;23.60;93.90
6439;DHT22;3252;52.540;13.290;2023-06-24T11:56:03;23.60;93.30
6439;DHT22;3252;52.540;13.290;2023-06-24T11:58:06;23.60;93.30
6439;DHT22;3252;52.540;13.290;2023-06-24T12:00:12;23.60;93.80
6439;DHT22;3252;52.540;13.290;2023-06-24T12:02:15;23.70;95.00
6439;DHT22;3252;52.540;13.290;2023-06-24T12:04:17;23.70;94.00
6439;DHT22;3252;52.540;13.290;2023-06-24T12:06:19;23.70;94.10
6439;DHT22;3252;52.540;13.290;2023-06-24T12:08:22;23.70;96.10
6439;DHT22;3252;52.540;13.290;2023-06-24T12:10:25;23.80;93.40
6439;DHT22;3252;52.540;13.290;2023-06-24T12:12:28;23.80;91.50
6439;DHT22;3252;52.540;13.290;2023-06-24T12:14:30;23.90;90.10
6439;DHT22;3252;52.540;13.290;2023-06-24T12:16:33;23.80;91.70
6439;DHT22;3252;52.540;13.290;2023-06-24T12:18:36;23.80;93.00
6439;DHT22;3252;52.540;13.290;2023-06-24T12:20:38;23.90;93.20
6439;DHT22;3252;52.540;13.290;2023-06-24T12:22:40;23.90;93.60
6439;DHT22;3252;52.540;13.290;2023-06-24T12:24:45;24.00;92.60
6439;DHT22;3252;52.540;13.290;2023-06-24T12:26:47;24.00;91.90
6439;DHT22;3252;52.540;13.290;2023-06-24T12:28:54;24.00;85.60
6439;DHT22;3252;52.540;13.290;2023-06-24T12:30:56;24.00;81.30
6439;DHT22;3252;52.540;13.290;2023-06-24T12:32:58;24.00;90.30
6439;DHT22;3252;52.540;13.290;2023-06-24T12:35:00;24.00;89.20
6439;DHT22;3252;52.540;13.290;2023-06-24T12:37:04;24.00;89.50
6439;DHT22;3252;52.540;13.290;2023-06-24T12:39:06;24.10;89.00
6439;DHT22;3252;52.540;13.290;2023-06-24T12:41:08;24.10;89.40
6439;DHT22;3252;52.540;13.290;2023-06-24T12:43:11;24.10;92.40
6439;DHT22;3252;52.540;13.290;2023-06-24T12:45:15;24.10;92.90
6439;DHT22;3252;52.540;13.290;2023-06-24T12:47:17;24.20;89.70
6439;DHT22;3252;52.540;13.290;2023-06-24T12:49:20;24.30;91.10
6439;DHT22;3252;52.540;13.290;2023-06-24T12:51:22;24.30;90.10
6439;DHT22;3252;52.540;13.290;2023-06-24T12:53:24;24.30;90.00
6439;DHT22;3252;52.540;13.290;2023-06-24T12:55:26;24.30;92.80
6439;DHT22;3252;52.540;13.290;2023-06-24T12:57:28;24.30;91.60
6439;DHT22;3252;52.540;13.290;2023-06-24T12:59:31;24.40;90.30
6439;DHT22;3252;52.540;13.290;2023-06-24T13:01:35;24.30;91.50
6439;DHT22;3252;52.540;13.290;2023-06-24T13:03:37;24.30;87.40
6439;DHT22;3252;52.540;13.290;2023-06-24T13:05:40;24.40;90.50
6439;DHT22;3252;52.540;13.290;2023-06-24T13:07:42;24.50;89.00
6439;DHT22;3252;52.540;13.290;2023-06-24T13:09:44;24.40;93.60
6439;DHT22;3252;52.540;13.290;2023-06-24T13:11:46;24.50;93.80
6439;DHT22;3252;52.540;13.290;2023-06-24T13:13:49;24.50;95.10
6439;DHT22;3252;52.540;13.290;2023-06-24T13:15:52;24.60;92.90
6439;DHT22;3252;52.540;13.290;2023-06-24T13:17:55;24.60;88.80
6439;DHT22;3252;52.540;13.290;2023-06-24T13:19:57;24.70;88.00
6439;DHT22;3252;52.540;13.290;2023-06-24T13:22:00;24.70;92.20